Time;durP1;ratioP1;P1;durP2;ratioP2;P2;SDS_P1;SDS_P2;PMS_P1;PMS_P2;Temp;Humidity;BMP_temperature;BMP_pressure;BME280_temperature;BME280_humidity;BME280_pressure;Samples;Min_cycle;Max_cycle;Signal;HPM_P1;HPM_P2
2024/04/17 00:01:45;;;;;;;222.80;61.80;;;;;;;;;;5342938;26;20548;-43
2024/04/17 00:04:11;;;;;;;222.90;62.58;;;;;;;;;;5342687;26;20465;-43
2024/04/17 00:06:37;;;;;;;226.75;64.68;;;;;;;;;;5342462;26;20273;-43
2024/04/17 00:09:04;;;;;;;222.03;61.87;;;;;;;;;;5342709;26;20715;-43
2024/04/17 00:11:30;;;;;;;222.90;62.33;;;;;;;;;;5345367;26;20859;-43
2024/04/17 00:13:56;;;;;;;224.87;62.87;;;;;;;;;;5345981;26;20239;-43
2024/04/17 00:16:22;;;;;;;223.25;62.70;;;;;;;;;;5345699;26;21020;-43
2024/04/17 00:18:48;;;;;;;220.30;59.80;;;;;;;;;;5345699;26;20227;-43
2024/04/17 00:21:14;;;;;;;224.47;64.30;;;;;;;;;;5341171;26;20801;-43
2024/04/17 00:23:40;;;;;;;220.80;59.63;;;;;;;;;;5345542;26;20573;-43
2024/04/17 00:26:06;;;;;;;218.90;58.23;;;;;;;;;;5345331;26;20470;-43
2024/04/17 00:28:31;;;;;;;219.47;58.80;;;;;;;;;;5345601;26;20449;-43
2024/04/17 00:30:57;;;;;;;220.97;61.00;;;;;;;;;;5345404;26;20529;-43
2024/04/17 00:33:25;;;;;;;218.23;60.20;;;;;;;;;;5345739;26;20499;-43
2024/04/17 00:35:51;;;;;;;216.82;57.45;;;;;;;;;;5345665;26;20907;-43
2024/04/17 00:38:17;;;;;;;217.63;59.07;;;;;;;;;;5345730;26;20326;-43
2024/04/17 00:40:43;;;;;;;225.23;65.57;;;;;;;;;;5345575;26;20503;-43
2024/04/17 00:43:09;;;;;;;223.15;63.35;;;;;;;;;;5345252;26;20461;-43
2024/04/17 00:45:43;;;;;;;217.67;58.50;;;;;;;;;;5345380;26;20228;-43
2024/04/17 00:48:11;;;;;;;221.48;63.22;;;;;;;;;;5343424;26;20542;-43
2024/04/17 00:50:37;;;;;;;219.80;61.38;;;;;;;;;;5345402;26;20222;-43
2024/04/17 00:53:03;;;;;;;216.45;58.40;;;;;;;;;;5345366;26;20613;-43
2024/04/17 00:55:29;;;;;;;221.32;60.65;;;;;;;;;;5344970;26;20269;-43
2024/04/17 00:57:56;;;;;;;220.30;62.00;;;;;;;;;;5345453;26;20223;-43
2024/04/17 01:00:22;;;;;;;219.73;62.28;;;;;;;;;;5345520;26;21862;-43
2024/04/17 01:02:47;;;;;;;216.87;59.00;;;;;;;;;;5344246;26;20291;-43
2024/04/17 01:05:14;;;;;;;227.27;67.87;;;;;;;;;;5344722;26;20951;-43
2024/04/17 01:07:40;;;;;;;219.43;60.65;;;;;;;;;;5345210;26;20494;-43
2024/04/17 01:10:06;;;;;;;220.77;60.42;;;;;;;;;;5345385;26;20281;-43
2024/04/17 01:12:32;;;;;;;220.05;61.63;;;;;;;;;;5345396;26;20230;-43
2024/04/17 01:14:58;;;;;;;216.20;57.65;;;;;;;;;;5344937;26;20227;-43
2024/04/17 01:17:24;;;;;;;217.47;58.50;;;;;;;;;;5347551;26;20253;-43
2024/04/17 01:19:50;;;;;;;218.40;60.40;;;;;;;;;;5345285;26;20495;-43
2024/04/17 01:22:16;;;;;;;220.80;62.50;;;;;;;;;;5344677;26;20234;-43
2024/04/17 01:24:42;;;;;;;219.27;59.80;;;;;;;;;;5340370;26;20455;-43
2024/04/17 01:27:08;;;;;;;218.83;61.10;;;;;;;;;;5344531;26;20465;-44
2024/04/17 01:29:34;;;;;;;218.47;61.20;;;;;;;;;;5344952;26;20458;-43
2024/04/17 01:32:00;;;;;;;220.37;59.80;;;;;;;;;;5344796;26;20526;-43
2024/04/17 01:34:26;;;;;;;217.00;59.83;;;;;;;;;;5344892;26;20501;-43
2024/04/17 01:36:52;;;;;;;216.10;57.00;;;;;;;;;;5344345;26;20453;-43
2024/04/17 01:39:18;;;;;;;218.85;60.67;;;;;;;;;;5344834;26;20457;-43
2024/04/17 01:41:44;;;;;;;220.90;63.30;;;;;;;;;;5344843;26;20286;-43
2024/04/17 01:44:10;;;;;;;218.53;60.53;;;;;;;;;;5345011;26;20510;-43
2024/04/17 01:46:37;;;;;;;217.17;62.13;;;;;;;;;;5344411;26;20555;-43
2024/04/17 01:49:03;;;;;;;218.27;59.58;;;;;;;;;;5338925;26;21131;-43
2024/04/17 01:51:29;;;;;;;217.07;60.23;;;;;;;;;;5344634;26;20235;-43
2024/04/17 01:53:54;;;;;;;216.77;57.50;;;;;;;;;;5344144;26;21000;-43
2024/04/17 01:56:21;;;;;;;219.07;59.50;;;;;;;;;;5344240;26;20796;-43
2024/04/17 01:58:47;;;;;;;216.50;57.53;;;;;;;;;;5344420;26;21119;-43
2024/04/17 02:01:13;;;;;;;219.70;59.88;;;;;;;;;;5344393;26;20734;-43
2024/04/17 02:03:39;;;;;;;217.77;59.63;;;;;;;;;;5344389;26;20226;-43
2024/04/17 02:06:05;;;;;;;218.97;61.87;;;;;;;;;;5344374;26;20983;-43
2024/04/17 02:08:31;;;;;;;218.63;62.50;;;;;;;;;;5344349;26;20564;-43
2024/04/17 02:10:57;;;;;;;217.03;59.67;;;;;;;;;;5344240;26;20711;-43
2024/04/17 02:13:23;;;;;;;217.30;60.15;;;;;;;;;;5344962;26;20873;-43
2024/04/17 02:15:49;;;;;;;218.38;60.90;;;;;;;;;;5345007;26;20225;-43
2024/04/17 02:18:15;;;;;;;217.87;60.00;;;;;;;;;;5342608;26;20321;-43
2024/04/17 02:20:41;;;;;;;217.88;61.65;;;;;;;;;;5344469;26;20513;-43
2024/04/17 02:23:07;;;;;;;216.20;58.33;;;;;;;;;;5343900;26;20277;-43
2024/04/17 02:25:33;;;;;;;215.90;58.95;;;;;;;;;;5343677;26;21069;-43
2024/04/17 02:27:59;;;;;;;219.27;63.10;;;;;;;;;;5343684;26;20264;-43
2024/04/17 02:30:25;;;;;;;216.97;58.63;;;;;;;;;;5344145;26;20505;-43
2024/04/17 02:32:51;;;;;;;218.27;60.57;;;;;;;;;;5343721;26;20505;-43
2024/04/17 02:35:17;;;;;;;216.38;59.08;;;;;;;;;;5342277;26;20539;-43
2024/04/17 02:37:43;;;;;;;220.97;63.17;;;;;;;;;;5344142;26;20230;-42
2024/04/17 02:40:09;;;;;;;218.63;60.93;;;;;;;;;;5345941;26;20508;-43
2024/04/17 02:42:35;;;;;;;217.70;57.88;;;;;;;;;;5347222;26;20521;-43
2024/04/17 02:45:01;;;;;;;224.07;63.20;;;;;;;;;;5343355;26;20222;-43
2024/04/17 02:47:27;;;;;;;217.13;59.90;;;;;;;;;;5343662;26;20593;-42
2024/04/17 02:49:53;;;;;;;216.07;58.37;;;;;;;;;;5344000;26;20458;-43
2024/04/17 02:52:19;;;;;;;217.47;59.43;;;;;;;;;;5344041;26;20469;-42
2024/04/17 02:54:45;;;;;;;218.97;62.47;;;;;;;;;;5344654;26;21056;-42
2024/04/17 02:57:11;;;;;;;222.25;61.90;;;;;;;;;;5343323;26;20453;-43
2024/04/17 02:59:37;;;;;;;218.17;59.37;;;;;;;;;;5344125;26;20336;-42
2024/04/17 03:02:03;;;;;;;217.77;58.60;;;;;;;;;;5356345;26;21056;-43
2024/04/17 03:04:29;;;;;;;216.43;58.23;;;;;;;;;;5343721;26;20858;-43
2024/04/17 03:06:55;;;;;;;219.17;60.27;;;;;;;;;;5342933;26;20512;-43
2024/04/17 03:09:21;;;;;;;217.43;60.60;;;;;;;;;;5344316;26;20496;-42
2024/04/17 03:11:47;;;;;;;216.53;58.73;;;;;;;;;;5344134;26;20472;-42
2024/04/17 03:14:13;;;;;;;219.65;60.88;;;;;;;;;;5344184;26;20457;-43
2024/04/17 03:16:39;;;;;;;226.67;64.27;;;;;;;;;;5343074;26;20222;-43
2024/04/17 03:19:05;;;;;;;217.67;61.00;;;;;;;;;;5343395;26;20445;-43
2024/04/17 03:21:31;;;;;;;217.03;59.00;;;;;;;;;;5347739;26;20441;-43
2024/04/17 03:23:57;;;;;;;218.43;62.77;;;;;;;;;;5343779;26;20472;-43
2024/04/17 03:26:22;;;;;;;214.57;58.37;;;;;;;;;;5343127;26;20461;-42
2024/04/17 03:28:48;;;;;;;219.03;61.10;;;;;;;;;;5343459;26;20516;-43
2024/04/17 03:31:15;;;;;;;218.43;62.70;;;;;;;;;;5343408;26;20898;-42
2024/04/17 03:33:41;;;;;;;217.60;62.58;;;;;;;;;;5342686;26;20512;-42
2024/04/17 03:36:07;;;;;;;214.13;58.20;;;;;;;;;;5342230;26;20226;-43
2024/04/17 03:38:33;;;;;;;217.80;61.33;;;;;;;;;;5341798;26;20222;-42
2024/04/17 03:40:59;;;;;;;211.80;56.40;;;;;;;;;;5357606;26;20263;-42
2024/04/17 03:43:25;;;;;;;217.88;62.65;;;;;;;;;;5342842;26;21007;-42
2024/04/17 03:45:51;;;;;;;219.45;64.28;;;;;;;;;;5346670;26;20753;-42
2024/04/17 03:48:17;;;;;;;220.53;66.00;;;;;;;;;;5350253;26;20228;-42
2024/04/17 03:50:43;;;;;;;215.17;59.03;;;;;;;;;;5350690;26;20453;-43
2024/04/17 03:53:10;;;;;;;217.47;61.77;;;;;;;;;;5349542;26;20501;-42
2024/04/17 03:55:36;;;;;;;216.88;62.40;;;;;;;;;;5349975;26;20456;-42
2024/04/17 03:58:02;;;;;;;216.93;62.00;;;;;;;;;;5344138;26;20327;-42
2024/04/17 04:00:27;;;;;;;216.37;60.27;;;;;;;;;;5342802;26;20976;-42
2024/04/17 04:02:53;;;;;;;216.00;59.97;;;;;;;;;;5364177;26;21024;-42
2024/04/17 04:05:19;;;;;;;219.27;61.60;;;;;;;;;;5349712;26;21071;-43
2024/04/17 04:07:45;;;;;;;214.40;57.07;;;;;;;;;;5349741;26;20517;-43
2024/04/17 04:10:11;;;;;;;218.43;62.07;;;;;;;;;;5349989;26;20469;-42
2024/04/17 04:12:37;;;;;;;215.53;58.83;;;;;;;;;;5349911;26;20477;-42
2024/04/17 04:15:03;;;;;;;219.57;63.80;;;;;;;;;;5349605;26;20503;-42
2024/04/17 04:17:29;;;;;;;215.68;61.25;;;;;;;;;;5349896;26;20549;-42
2024/04/17 04:19:55;;;;;;;216.77;60.27;;;;;;;;;;5350281;26;20222;-42
2024/04/17 04:22:21;;;;;;;216.27;59.67;;;;;;;;;;5354105;26;20530;-42
2024/04/17 04:24:47;;;;;;;216.97;62.07;;;;;;;;;;5349323;26;20480;-43
2024/04/17 04:27:13;;;;;;;214.80;59.97;;;;;;;;;;5349264;26;20452;-42
2024/04/17 04:29:39;;;;;;;216.90;60.77;;;;;;;;;;5349835;26;20556;-42
2024/04/17 04:32:05;;;;;;;219.40;62.15;;;;;;;;;;5349326;26;21015;-43
2024/04/17 04:34:31;;;;;;;214.88;60.35;;;;;;;;;;5349922;26;20227;-42
2024/04/17 04:36:57;;;;;;;216.20;61.07;;;;;;;;;;5349177;26;20336;-42
2024/04/17 04:39:23;;;;;;;218.17;61.40;;;;;;;;;;5354427;26;20447;-43
2024/04/17 04:41:49;;;;;;;214.37;60.17;;;;;;;;;;5358868;26;20460;-42
2024/04/17 04:44:15;;;;;;;218.27;60.97;;;;;;;;;;5349444;26;20777;-42
2024/04/17 04:46:41;;;;;;;218.23;61.47;;;;;;;;;;5348858;26;20468;-42
2024/04/17 04:49:07;;;;;;;217.23;60.93;;;;;;;;;;5349472;26;21050;-42
2024/04/17 04:51:33;;;;;;;216.63;62.03;;;;;;;;;;5349315;26;21112;-43
2024/04/17 04:53:59;;;;;;;218.17;62.03;;;;;;;;;;5349063;26;20457;-42
2024/04/17 04:56:25;;;;;;;215.43;58.17;;;;;;;;;;5352426;26;20515;-42
2024/04/17 04:58:51;;;;;;;213.98;56.28;;;;;;;;;;5353604;26;20445;-43
2024/04/17 05:01:17;;;;;;;214.73;57.70;;;;;;;;;;5345110;26;20339;-42
2024/04/17 05:03:43;;;;;;;215.20;58.90;;;;;;;;;;5353645;26;21237;-42
2024/04/17 05:06:09;;;;;;;220.57;64.93;;;;;;;;;;5345244;26;20234;-42
2024/04/17 05:08:35;;;;;;;218.77;60.80;;;;;;;;;;5345275;26;20287;-42
2024/04/17 05:11:01;;;;;;;218.03;63.03;;;;;;;;;;5345194;26;20517;-42
2024/04/17 05:13:27;;;;;;;223.60;64.33;;;;;;;;;;5344881;26;20996;-42
2024/04/17 05:15:53;;;;;;;214.33;59.13;;;;;;;;;;5344903;26;20469;-43
2024/04/17 05:18:19;;;;;;;215.77;59.63;;;;;;;;;;5359900;26;20513;-43
2024/04/17 05:20:45;;;;;;;216.27;60.30;;;;;;;;;;5345330;26;20468;-42
2024/04/17 05:23:11;;;;;;;218.48;62.35;;;;;;;;;;5348859;26;20980;-42
2024/04/17 05:25:37;;;;;;;214.97;59.27;;;;;;;;;;5345155;26;20271;-42
2024/04/17 05:28:03;;;;;;;220.02;63.67;;;;;;;;;;5345453;26;21088;-43
2024/04/17 05:30:29;;;;;;;217.98;60.83;;;;;;;;;;5345149;26;20236;-42
2024/04/17 05:32:55;;;;;;;219.90;64.60;;;;;;;;;;5341346;26;20231;-42
2024/04/17 05:35:21;;;;;;;216.53;61.43;;;;;;;;;;5344277;26;20274;-42
2024/04/17 05:37:47;;;;;;;218.20;63.30;;;;;;;;;;5349729;26;20453;-43
2024/04/17 05:40:13;;;;;;;213.80;59.93;;;;;;;;;;5344586;26;21060;-42
2024/04/17 05:42:39;;;;;;;217.07;59.83;;;;;;;;;;5344455;26;20461;-42
2024/04/17 05:45:05;;;;;;;222.43;65.77;;;;;;;;;;5344550;26;20554;-43
2024/04/17 05:47:32;;;;;;;214.20;58.63;;;;;;;;;;5343516;26;20503;-42
2024/04/17 05:49:57;;;;;;;220.70;62.72;;;;;;;;;;5344251;26;20324;-42
2024/04/17 05:52:23;;;;;;;214.87;58.03;;;;;;;;;;5344514;26;20239;-43
2024/04/17 05:54:49;;;;;;;218.20;61.60;;;;;;;;;;5344676;26;20524;-42
2024/04/17 05:57:15;;;;;;;215.83;58.30;;;;;;;;;;5343174;26;20823;-42
2024/04/17 05:59:41;;;;;;;215.70;58.40;;;;;;;;;;5343240;26;20864;-43
2024/04/17 06:02:07;;;;;;;218.33;59.37;;;;;;;;;;5343681;26;20801;-42
2024/04/17 06:04:33;;;;;;;220.15;62.78;;;;;;;;;;5344081;26;20465;-42
2024/04/17 06:06:59;;;;;;;219.87;61.53;;;;;;;;;;5343013;26;20298;-43
2024/04/17 06:09:25;;;;;;;220.90;60.43;;;;;;;;;;5343179;26;20574;-42
2024/04/17 06:11:51;;;;;;;220.07;59.53;;;;;;;;;;5343724;26;21013;-43
2024/04/17 06:14:17;;;;;;;221.13;62.77;;;;;;;;;;5344408;26;20506;-43
2024/04/17 06:16:43;;;;;;;220.33;58.10;;;;;;;;;;5343607;26;20454;-43
2024/04/17 06:19:10;;;;;;;222.52;62.17;;;;;;;;;;5344133;26;20503;-42
2024/04/17 06:21:36;;;;;;;222.15;62.13;;;;;;;;;;5344214;26;20223;-43
2024/04/17 06:24:03;;;;;;;224.50;63.87;;;;;;;;;;5338363;26;20297;-44
2024/04/17 06:26:29;;;;;;;221.05;59.95;;;;;;;;;;5343849;26;20440;-43
2024/04/17 06:28:56;;;;;;;225.27;65.00;;;;;;;;;;5343888;26;20271;-43
2024/04/17 06:31:22;;;;;;;222.30;60.35;;;;;;;;;;5344143;26;20854;-43
2024/04/17 06:33:48;;;;;;;221.87;63.17;;;;;;;;;;5344318;26;20776;-42
2024/04/17 06:36:14;;;;;;;222.40;62.33;;;;;;;;;;5343903;26;20442;-42
2024/04/17 06:38:40;;;;;;;220.65;60.90;;;;;;;;;;5344062;26;20455;-43
2024/04/17 06:41:06;;;;;;;217.83;58.37;;;;;;;;;;5343867;26;20271;-42
2024/04/17 06:43:32;;;;;;;220.90;59.83;;;;;;;;;;5343651;26;20510;-42
2024/04/17 06:45:57;;;;;;;222.00;62.17;;;;;;;;;;5343651;26;20577;-43
2024/04/17 06:48:23;;;;;;;221.30;60.27;;;;;;;;;;5343835;26;20502;-42
2024/04/17 06:50:49;;;;;;;220.70;60.40;;;;;;;;;;5343757;26;20451;-43
2024/04/17 06:53:15;;;;;;;221.57;61.30;;;;;;;;;;5343696;26;21025;-43
2024/04/17 06:55:44;;;;;;;216.87;59.20;;;;;;;;;;5343322;26;21083;-42
2024/04/17 06:58:10;;;;;;;215.65;57.45;;;;;;;;;;5343759;26;20454;-42
2024/04/17 07:00:36;;;;;;;217.70;59.13;;;;;;;;;;5343688;26;20291;-42
2024/04/17 07:03:03;;;;;;;219.90;59.55;;;;;;;;;;5337923;26;20450;-43
2024/04/17 07:05:29;;;;;;;221.02;59.78;;;;;;;;;;5343183;26;20231;-42
2024/04/17 07:07:55;;;;;;;218.32;57.95;;;;;;;;;;5343638;26;20277;-43
2024/04/17 07:10:22;;;;;;;216.55;56.67;;;;;;;;;;5343409;26;20271;-43
2024/04/17 07:12:48;;;;;;;218.45;58.72;;;;;;;;;;5346966;26;20239;-43
2024/04/17 07:15:14;;;;;;;224.30;62.47;;;;;;;;;;5343071;26;20756;-43
2024/04/17 07:17:40;;;;;;;217.38;56.83;;;;;;;;;;5343421;26;20510;-43
2024/04/17 07:20:06;;;;;;;220.23;60.57;;;;;;;;;;5342853;26;20565;-42
2024/04/17 07:22:32;;;;;;;215.50;56.78;;;;;;;;;;5343967;26;20458;-42
2024/04/17 07:24:58;;;;;;;221.10;62.15;;;;;;;;;;5351381;26;20275;-44
2024/04/17 07:27:24;;;;;;;218.23;58.40;;;;;;;;;;5342920;26;20224;-42
2024/04/17 07:29:50;;;;;;;219.17;60.53;;;;;;;;;;5343199;26;20522;-43
2024/04/17 07:32:16;;;;;;;218.87;60.63;;;;;;;;;;5343236;26;21002;-42
2024/04/17 07:34:42;;;;;;;220.07;62.83;;;;;;;;;;5342236;26;20510;-43
2024/04/17 07:37:08;;;;;;;220.27;60.33;;;;;;;;;;5342513;26;20509;-43
2024/04/17 07:39:36;;;;;;;217.00;56.45;;;;;;;;;;5343181;26;20502;-43
2024/04/17 07:42:02;;;;;;;222.18;61.90;;;;;;;;;;5343294;26;20621;-42
2024/04/17 07:44:29;;;;;;;217.60;57.53;;;;;;;;;;5339988;26;20223;-42
2024/04/17 07:46:55;;;;;;;222.15;60.60;;;;;;;;;;5342589;26;20451;-42
2024/04/17 07:49:21;;;;;;;220.00;59.40;;;;;;;;;;5342814;26;20350;-42
2024/04/17 07:51:47;;;;;;;219.37;57.90;;;;;;;;;;5341102;26;20464;-42
2024/04/17 07:54:13;;;;;;;220.27;59.67;;;;;;;;;;5342665;26;21073;-42
2024/04/17 07:56:39;;;;;;;219.97;57.67;;;;;;;;;;5342240;26;20454;-43
2024/04/17 07:59:05;;;;;;;221.65;60.58;;;;;;;;;;5343197;26;20578;-42
2024/04/17 08:01:30;;;;;;;220.33;60.57;;;;;;;;;;5342790;26;20333;-42
2024/04/17 08:03:56;;;;;;;223.20;60.90;;;;;;;;;;5340590;26;20510;-42
2024/04/17 08:06:22;;;;;;;218.93;57.90;;;;;;;;;;5342315;26;20593;-42
2024/04/17 08:08:48;;;;;;;220.60;59.97;;;;;;;;;;5342378;26;20722;-42
2024/04/17 08:11:16;;;;;;;224.70;65.47;;;;;;;;;;5342162;26;20794;-43
2024/04/17 08:13:42;;;;;;;219.40;58.78;;;;;;;;;;5343169;26;20458;-43
2024/04/17 08:16:08;;;;;;;224.50;64.45;;;;;;;;;;5342292;26;20222;-43
2024/04/17 08:18:34;;;;;;;219.43;60.70;;;;;;;;;;5356748;26;20724;-43
2024/04/17 08:21:00;;;;;;;218.17;60.50;;;;;;;;;;5346068;26;20453;-43
2024/04/17 08:23:26;;;;;;;220.93;58.17;;;;;;;;;;5342262;26;20514;-43
2024/04/17 08:25:52;;;;;;;216.57;56.03;;;;;;;;;;5338185;26;20225;-43
2024/04/17 08:28:18;;;;;;;223.03;61.97;;;;;;;;;;5344430;26;20466;-43
2024/04/17 08:30:44;;;;;;;221.97;60.53;;;;;;;;;;5341897;26;20459;-43
2024/04/17 08:33:10;;;;;;;219.70;59.75;;;;;;;;;;5347119;26;20598;-43
2024/04/17 08:35:40;;;;;;;216.03;56.30;;;;;;;;;;5344949;26;20720;-43
2024/04/17 08:38:06;;;;;;;220.75;59.35;;;;;;;;;;5344849;26;20478;-43
2024/04/17 08:40:32;;;;;;;219.10;58.47;;;;;;;;;;5344881;26;20330;-43
2024/04/17 08:43:04;;;;;;;220.65;58.97;;;;;;;;;;5346051;26;20275;-43
2024/04/17 08:45:38;;;;;;;219.38;57.22;;;;;;;;;;5359248;26;20849;-42
2024/04/17 08:48:06;;;;;;;216.90;55.90;;;;;;;;;;5345292;26;20279;-42
2024/04/17 08:50:34;;;;;;;223.35;61.72;;;;;;;;;;5342693;26;20228;-43
2024/04/17 08:53:04;;;;;;;221.18;60.78;;;;;;;;;;5343450;26;20271;-43
2024/04/17 08:55:30;;;;;;;224.68;62.53;;;;;;;;;;5331302;26;20544;-43
2024/04/17 08:57:57;;;;;;;222.18;62.33;;;;;;;;;;5344362;26;20231;-44
2024/04/17 09:00:24;;;;;;;219.73;60.35;;;;;;;;;;5343771;26;20244;-43
2024/04/17 09:02:51;;;;;;;221.00;60.55;;;;;;;;;;5345203;26;20227;-43
2024/04/17 09:05:17;;;;;;;220.13;58.92;;;;;;;;;;5345000;26;20232;-42
2024/04/17 09:07:44;;;;;;;214.75;55.35;;;;;;;;;;5345104;26;20333;-43
2024/04/17 09:10:10;;;;;;;219.23;58.22;;;;;;;;;;5345888;26;20235;-43
2024/04/17 09:12:38;;;;;;;218.85;57.17;;;;;;;;;;5345417;26;20263;-42
2024/04/17 09:15:05;;;;;;;231.10;65.35;;;;;;;;;;5345487;26;20820;-43
2024/04/17 09:17:30;;;;;;;218.38;56.25;;;;;;;;;;5343578;26;20233;-44
2024/04/17 09:19:56;;;;;;;218.53;57.03;;;;;;;;;;5345133;26;20946;-42
2024/04/17 09:22:23;;;;;;;219.87;59.27;;;;;;;;;;5349272;26;20471;-42
2024/04/17 09:24:49;;;;;;;222.35;59.95;;;;;;;;;;5345331;26;20467;-42
2024/04/17 09:27:15;;;;;;;222.83;60.87;;;;;;;;;;5344784;26;20611;-42
2024/04/17 09:29:41;;;;;;;223.87;60.33;;;;;;;;;;5345399;26;20562;-42
2024/04/17 09:32:14;;;;;;;223.30;59.83;;;;;;;;;;5345232;26;20579;-42
2024/04/17 09:34:40;;;;;;;222.10;59.65;;;;;;;;;;5344111;26;20455;-42
2024/04/17 09:37:08;;;;;;;224.93;62.63;;;;;;;;;;5344483;26;20988;-42
2024/04/17 09:39:35;;;;;;;222.32;59.28;;;;;;;;;;5344731;26;20505;-42
2024/04/17 09:42:02;;;;;;;223.57;61.35;;;;;;;;;;5344669;26;20218;-42
2024/04/17 09:44:28;;;;;;;224.20;59.88;;;;;;;;;;5333860;26;20225;-43
2024/04/17 09:46:59;;;;;;;226.00;60.83;;;;;;;;;;5344608;26;20618;-43
2024/04/17 09:49:28;;;;;;;231.52;65.57;;;;;;;;;;5348404;26;20514;-43
2024/04/17 09:51:56;;;;;;;228.70;65.88;;;;;;;;;;5344752;26;20700;-42
2024/04/17 09:54:22;;;;;;;232.18;69.38;;;;;;;;;;5345028;26;20238;-42
2024/04/17 09:56:50;;;;;;;231.82;68.97;;;;;;;;;;5344043;26;20273;-43
2024/04/17 09:59:19;;;;;;;228.75;64.85;;;;;;;;;;5344578;26;20230;-42
2024/04/17 10:01:46;;;;;;;231.25;68.43;;;;;;;;;;5335522;26;20349;-42
2024/04/17 10:04:13;;;;;;;230.27;66.35;;;;;;;;;;5344613;26;20239;-42
2024/04/17 10:06:40;;;;;;;229.15;65.05;;;;;;;;;;5344182;26;20353;-42
2024/04/17 10:09:06;;;;;;;232.98;69.95;;;;;;;;;;5344578;26;20361;-43
2024/04/17 10:11:32;;;;;;;228.02;64.97;;;;;;;;;;5345109;26;20737;-43
2024/04/17 10:13:58;;;;;;;233.65;67.13;;;;;;;;;;5344881;26;20290;-42
2024/04/17 10:16:24;;;;;;;232.93;68.53;;;;;;;;;;5343963;26;20219;-42
2024/04/17 10:18:51;;;;;;;233.05;69.22;;;;;;;;;;5344738;26;20627;-42
2024/04/17 10:21:18;;;;;;;240.30;77.25;;;;;;;;;;5347534;26;20606;-43
2024/04/17 10:23:44;;;;;;;236.48;71.43;;;;;;;;;;5344238;26;20257;-44
2024/04/17 10:26:13;;;;;;;235.07;72.03;;;;;;;;;;5344013;26;20258;-42
2024/04/17 10:28:39;;;;;;;237.95;74.35;;;;;;;;;;5344250;26;20750;-43
2024/04/17 10:31:06;;;;;;;234.90;71.50;;;;;;;;;;5344492;26;20219;-43
2024/04/17 10:33:35;;;;;;;235.48;70.47;;;;;;;;;;5344740;26;20465;-43
2024/04/17 10:36:02;;;;;;;238.63;73.50;;;;;;;;;;5344354;26;20257;-42
2024/04/17 10:38:30;;;;;;;236.35;71.95;;;;;;;;;;5352271;26;20354;-42
2024/04/17 10:40:57;;;;;;;234.98;71.40;;;;;;;;;;5344031;26;20824;-44
2024/04/17 10:43:23;;;;;;;237.27;74.80;;;;;;;;;;5344098;26;20273;-42
2024/04/17 10:45:59;;;;;;;240.45;74.90;;;;;;;;;;5343924;26;20294;-43
2024/04/17 10:48:25;;;;;;;232.77;69.32;;;;;;;;;;5343931;26;20224;-42
2024/04/17 10:50:52;;;;;;;236.25;73.00;;;;;;;;;;5344212;26;20677;-43
2024/04/17 10:53:19;;;;;;;239.95;75.07;;;;;;;;;;5344009;26;20227;-43
2024/04/17 10:55:45;;;;;;;239.25;74.40;;;;;;;;;;5342346;26;20298;-43
2024/04/17 10:58:13;;;;;;;240.23;77.17;;;;;;;;;;5344168;26;20227;-40
2024/04/17 11:00:39;;;;;;;234.40;72.40;;;;;;;;;;5343980;26;20465;-41
2024/04/17 11:03:06;;;;;;;236.95;72.75;;;;;;;;;;5343812;26;20232;-41
2024/04/17 11:05:32;;;;;;;238.53;75.40;;;;;;;;;;5343530;26;20221;-40
2024/04/17 11:07:59;;;;;;;242.00;78.50;;;;;;;;;;5341522;26;20450;-41
2024/04/17 11:10:25;;;;;;;240.68;77.25;;;;;;;;;;5343507;26;20780;-40
2024/04/17 11:12:51;;;;;;;243.98;79.40;;;;;;;;;;5343671;26;20242;-41
2024/04/17 11:15:17;;;;;;;245.67;79.23;;;;;;;;;;5343817;26;20264;-41
2024/04/17 11:17:43;;;;;;;244.97;83.50;;;;;;;;;;5343962;26;20545;-41
2024/04/17 11:20:10;;;;;;;246.13;83.50;;;;;;;;;;5343814;26;20514;-41
2024/04/17 11:22:36;;;;;;;243.10;80.40;;;;;;;;;;5348283;26;20457;-41
2024/04/17 11:25:04;;;;;;;245.77;80.13;;;;;;;;;;5343422;26;20459;-40
2024/04/17 11:27:30;;;;;;;248.57;85.40;;;;;;;;;;5329853;26;20218;-41
2024/04/17 11:30:01;;;;;;;248.07;83.50;;;;;;;;;;5343268;26;20445;-42
2024/04/17 11:32:28;;;;;;;250.13;86.70;;;;;;;;;;5343122;26;20986;-41
2024/04/17 11:34:54;;;;;;;250.33;85.43;;;;;;;;;;5342418;26;20441;-41
2024/04/17 11:37:21;;;;;;;255.17;90.70;;;;;;;;;;5343122;26;20864;-42
2024/04/17 11:39:47;;;;;;;246.20;81.40;;;;;;;;;;5343437;26;20578;-40
2024/04/17 11:42:13;;;;;;;247.40;83.60;;;;;;;;;;5343054;26;20466;-42
2024/04/17 11:44:39;;;;;;;244.70;81.63;;;;;;;;;;5343178;26;20452;-41
2024/04/17 11:47:08;;;;;;;243.43;80.43;;;;;;;;;;5342483;26;20517;-42
2024/04/17 11:49:34;;;;;;;242.87;79.63;;;;;;;;;;5342420;26;20519;-41
2024/04/17 11:52:02;;;;;;;243.17;78.70;;;;;;;;;;5339974;26;20557;-41
2024/04/17 11:54:28;;;;;;;239.87;75.87;;;;;;;;;;5343369;26;20990;-40
2024/04/17 11:56:54;;;;;;;239.77;74.77;;;;;;;;;;5342811;26;20609;-40
2024/04/17 11:59:20;;;;;;;237.23;75.17;;;;;;;;;;5344292;26;20464;-40
2024/04/17 12:01:46;;;;;;;235.30;70.40;;;;;;;;;;5342929;26;20447;-40
2024/04/17 12:04:12;;;;;;;239.17;76.13;;;;;;;;;;5342462;26;20539;-41
2024/04/17 12:06:38;;;;;;;240.70;75.97;;;;;;;;;;5343745;26;20580;-41
2024/04/17 12:09:04;;;;;;;238.53;77.60;;;;;;;;;;5345902;26;21399;-41
2024/04/17 12:11:29;;;;;;;238.30;75.97;;;;;;;;;;5346359;26;20443;-40
2024/04/17 12:13:55;;;;;;;235.17;71.87;;;;;;;;;;5346549;26;20276;-40
2024/04/17 12:16:21;;;;;;;237.23;74.57;;;;;;;;;;5345529;26;20514;-41
2024/04/17 12:18:47;;;;;;;237.87;73.77;;;;;;;;;;5346175;26;20451;-41
2024/04/17 12:21:13;;;;;;;240.70;74.70;;;;;;;;;;5346209;26;20460;-42
2024/04/17 12:23:41;;;;;;;240.50;77.10;;;;;;;;;;5346074;26;20461;-41
2024/04/17 12:28:52;;;;;;;245.30;83.00;;;;;;;;;;5345700;26;21065;-42
2024/04/17 12:31:19;;;;;;;247.77;83.50;;;;;;;;;;5343823;26;20448;-41
2024/04/17 12:33:45;;;;;;;249.10;85.10;;;;;;;;;;5345509;26;20470;-41
2024/04/17 12:36:11;;;;;;;249.63;86.43;;;;;;;;;;5344670;26;20510;-41
2024/04/17 12:38:37;;;;;;;249.50;89.57;;;;;;;;;;5341118;26;20466;-42
2024/04/17 12:41:02;;;;;;;251.23;89.50;;;;;;;;;;5346071;26;20455;-41
2024/04/17 12:43:28;;;;;;;251.30;90.63;;;;;;;;;;5345510;26;20520;-40
2024/04/17 12:45:55;;;;;;;252.03;88.37;;;;;;;;;;5344895;26;20574;-40
2024/04/17 12:48:21;;;;;;;251.47;87.67;;;;;;;;;;5345922;26;20469;-40
2024/04/17 12:50:47;;;;;;;248.30;84.70;;;;;;;;;;5346073;26;20515;-40
2024/04/17 12:53:13;;;;;;;245.83;81.07;;;;;;;;;;5345771;26;20512;-40
2024/04/17 12:55:39;;;;;;;244.53;80.47;;;;;;;;;;5345359;26;20469;-39
2024/04/17 12:58:05;;;;;;;243.07;80.47;;;;;;;;;;5345596;26;20906;-40
2024/04/17 13:00:31;;;;;;;239.70;77.60;;;;;;;;;;5345401;26;20507;-39
2024/04/17 13:02:57;;;;;;;238.25;74.85;;;;;;;;;;5345507;26;20583;-40
2024/04/17 13:05:23;;;;;;;237.00;73.57;;;;;;;;;;5343760;26;20233;-40
2024/04/17 13:07:49;;;;;;;235.37;73.90;;;;;;;;;;5345416;26;20517;-40
2024/04/17 13:10:15;;;;;;;230.00;67.60;;;;;;;;;;5345721;26;21070;-39
2024/04/17 13:12:41;;;;;;;230.20;69.53;;;;;;;;;;5344301;26;20516;-40
2024/04/17 13:15:07;;;;;;;232.83;70.17;;;;;;;;;;5344952;26;20495;-40
2024/04/17 13:17:33;;;;;;;230.37;69.53;;;;;;;;;;5344416;26;20467;-40
2024/04/17 13:19:59;;;;;;;234.38;74.22;;;;;;;;;;5344132;26;20524;-40
2024/04/17 13:22:25;;;;;;;232.70;71.77;;;;;;;;;;5344290;26;20711;-40
2024/04/17 13:24:51;;;;;;;241.60;77.13;;;;;;;;;;5345420;26;20508;-40
2024/04/17 13:27:17;;;;;;;240.17;75.90;;;;;;;;;;5344767;26;20226;-40
2024/04/17 13:29:43;;;;;;;242.63;78.60;;;;;;;;;;5344383;26;21095;-41
2024/04/17 13:32:09;;;;;;;245.30;83.53;;;;;;;;;;5344585;26;20899;-41
2024/04/17 13:34:35;;;;;;;245.30;80.37;;;;;;;;;;5344373;26;20465;-41
2024/04/17 13:37:01;;;;;;;242.13;80.97;;;;;;;;;;5345086;26;21258;-41
2024/04/17 13:39:27;;;;;;;239.50;78.77;;;;;;;;;;5345021;26;20932;-41
2024/04/17 13:41:53;;;;;;;243.90;82.27;;;;;;;;;;5345335;26;20448;-41
2024/04/17 13:44:20;;;;;;;243.00;81.03;;;;;;;;;;5344791;26;20516;-41
2024/04/17 13:46:46;;;;;;;243.90;82.10;;;;;;;;;;5344951;26;21085;-41
2024/04/17 13:49:12;;;;;;;247.43;85.17;;;;;;;;;;5345267;26;20505;-41
2024/04/17 13:51:38;;;;;;;248.67;85.70;;;;;;;;;;5345128;26;20497;-41
2024/04/17 13:54:04;;;;;;;250.77;86.87;;;;;;;;;;5344794;26;20453;-41
2024/04/17 13:56:30;;;;;;;248.30;85.10;;;;;;;;;;5344582;26;20448;-41
2024/04/17 13:58:57;;;;;;;249.73;87.70;;;;;;;;;;5344528;26;20447;-41
2024/04/17 14:01:23;;;;;;;251.93;90.57;;;;;;;;;;5345088;26;20529;-43